sensor_id;sensor_type;location;lat;lon;timestamp;P1;durP1;ratioP1;P2;durP2;ratioP2
21567;SDS011;10944;42.590;12.630;2023-02-28T00:00:22;23.53;;;17.03;;
21567;SDS011;10944;42.590;12.630;2023-02-28T00:02:48;24.73;;;17.23;;
21567;SDS011;10944;42.590;12.630;2023-02-28T00:05:15;24.83;;;17.00;;
21567;SDS011;10944;42.590;12.630;2023-02-28T00:07:43;25.03;;;17.00;;
21567;SDS011;10944;42.590;12.630;2023-02-28T00:10:11;24.00;;;17.03;;
21567;SDS011;10944;42.590;12.630;2023-02-28T00:12:39;24.53;;;16.70;;
21567;SDS011;10944;42.590;12.630;2023-02-28T00:15:06;22.77;;;16.80;;
21567;SDS011;10944;42.590;12.630;2023-02-28T00:17:34;21.77;;;15.20;;
21567;SDS011;10944;42.590;12.630;2023-02-28T00:20:01;21.27;;;15.73;;
21567;SDS011;10944;42.590;12.630;2023-02-28T00:22:40;21.07;;;15.10;;
21567;SDS011;10944;42.590;12.630;2023-02-28T00:25:10;19.93;;;13.17;;
21567;SDS011;10944;42.590;12.630;2023-02-28T00:27:38;18.63;;;13.43;;
21567;SDS011;10944;42.590;12.630;2023-02-28T00:30:06;18.03;;;12.80;;
21567;SDS011;10944;42.590;12.630;2023-02-28T00:32:33;19.43;;;13.57;;
21567;SDS011;10944;42.590;12.630;2023-02-28T00:34:59;19.97;;;13.13;;
21567;SDS011;10944;42.590;12.630;2023-02-28T00:37:25;20.50;;;14.73;;
21567;SDS011;10944;42.590;12.630;2023-02-28T00:39:51;20.03;;;13.93;;
21567;SDS011;10944;42.590;12.630;2023-02-28T00:42:17;19.73;;;13.37;;
21567;SDS011;10944;42.590;12.630;2023-02-28T00:44:43;20.03;;;13.27;;
21567;SDS011;10944;42.590;12.630;2023-02-28T00:47:08;17.90;;;12.90;;
21567;SDS011;10944;42.590;12.630;2023-02-28T00:49:34;18.83;;;13.03;;
21567;SDS011;10944;42.590;12.630;2023-02-28T00:52:00;19.53;;;12.37;;
21567;SDS011;10944;42.590;12.630;2023-02-28T00:54:25;17.37;;;12.07;;
21567;SDS011;10944;42.590;12.630;2023-02-28T00:56:51;19.43;;;12.57;;
21567;SDS011;10944;42.590;12.630;2023-02-28T00:59:17;17.37;;;12.03;;
21567;SDS011;10944;42.590;12.630;2023-02-28T01:01:44;20.90;;;12.30;;
21567;SDS011;10944;42.590;12.630;2023-02-28T01:04:11;20.30;;;11.93;;
21567;SDS011;10944;42.590;12.630;2023-02-28T01:06:37;17.57;;;11.33;;
21567;SDS011;10944;42.590;12.630;2023-02-28T01:09:03;18.90;;;12.33;;
21567;SDS011;10944;42.590;12.630;2023-02-28T01:11:30;17.17;;;11.67;;
21567;SDS011;10944;42.590;12.630;2023-02-28T01:13:56;17.47;;;11.97;;
21567;SDS011;10944;42.590;12.630;2023-02-28T01:16:22;16.07;;;11.30;;
21567;SDS011;10944;42.590;12.630;2023-02-28T01:18:47;15.37;;;10.90;;
21567;SDS011;10944;42.590;12.630;2023-02-28T01:21:14;16.97;;;11.30;;
21567;SDS011;10944;42.590;12.630;2023-02-28T01:23:42;15.27;;;9.90;;
21567;SDS011;10944;42.590;12.630;2023-02-28T01:26:09;15.50;;;11.00;;
21567;SDS011;10944;42.590;12.630;2023-02-28T01:28:35;16.17;;;10.50;;
21567;SDS011;10944;42.590;12.630;2023-02-28T01:31:02;16.43;;;11.07;;
21567;SDS011;10944;42.590;12.630;2023-02-28T01:33:28;16.80;;;10.20;;
21567;SDS011;10944;42.590;12.630;2023-02-28T01:36:04;13.77;;;9.43;;
21567;SDS011;10944;42.590;12.630;2023-02-28T01:38:31;15.77;;;9.50;;
21567;SDS011;10944;42.590;12.630;2023-02-28T01:40:58;14.77;;;9.90;;
21567;SDS011;10944;42.590;12.630;2023-02-28T01:43:28;13.33;;;9.27;;
21567;SDS011;10944;42.590;12.630;2023-02-28T01:45:55;14.40;;;9.33;;
21567;SDS011;10944;42.590;12.630;2023-02-28T01:48:26;16.70;;;9.53;;
21567;SDS011;10944;42.590;12.630;2023-02-28T01:50:56;16.67;;;9.03;;
21567;SDS011;10944;42.590;12.630;2023-02-28T01:53:35;14.67;;;9.37;;
21567;SDS011;10944;42.590;12.630;2023-02-28T01:56:04;12.97;;;8.83;;
21567;SDS011;10944;42.590;12.630;2023-02-28T01:58:32;14.30;;;8.57;;
21567;SDS011;10944;42.590;12.630;2023-02-28T02:00:59;14.17;;;8.47;;
21567;SDS011;10944;42.590;12.630;2023-02-28T02:03:25;14.93;;;8.80;;
21567;SDS011;10944;42.590;12.630;2023-02-28T02:05:50;17.20;;;8.83;;
21567;SDS011;10944;42.590;12.630;2023-02-28T02:08:17;14.50;;;9.20;;
21567;SDS011;10944;42.590;12.630;2023-02-28T02:10:46;13.97;;;8.47;;
21567;SDS011;10944;42.590;12.630;2023-02-28T02:13:34;12.27;;;8.47;;
21567;SDS011;10944;42.590;12.630;2023-02-28T02:27:25;13.30;;;8.07;;
21567;SDS011;10944;42.590;12.630;2023-02-28T02:46:18;12.70;;;8.07;;
21567;SDS011;10944;42.590;12.630;2023-02-28T02:48:46;13.13;;;7.60;;
21567;SDS011;10944;42.590;12.630;2023-02-28T02:51:15;12.03;;;7.57;;
21567;SDS011;10944;42.590;12.630;2023-02-28T02:54:17;13.23;;;8.17;;
21567;SDS011;10944;42.590;12.630;2023-02-28T02:56:53;13.13;;;7.83;;
21567;SDS011;10944;42.590;12.630;2023-02-28T02:59:22;13.63;;;8.17;;
21567;SDS011;10944;42.590;12.630;2023-02-28T03:01:52;12.63;;;7.90;;
21567;SDS011;10944;42.590;12.630;2023-02-28T03:04:22;11.83;;;7.90;;
21567;SDS011;10944;42.590;12.630;2023-02-28T03:06:52;14.93;;;8.27;;
21567;SDS011;10944;42.590;12.630;2023-02-28T03:09:20;11.00;;;7.57;;
21567;SDS011;10944;42.590;12.630;2023-02-28T03:11:46;14.00;;;8.53;;
21567;SDS011;10944;42.590;12.630;2023-02-28T03:20:12;14.33;;;8.83;;
21567;SDS011;10944;42.590;12.630;2023-02-28T03:23:42;14.47;;;9.10;;
21567;SDS011;10944;42.590;12.630;2023-02-28T03:26:07;15.70;;;9.60;;
21567;SDS011;10944;42.590;12.630;2023-02-28T03:31:30;14.37;;;9.10;;
21567;SDS011;10944;42.590;12.630;2023-02-28T03:34:14;14.23;;;9.10;;
21567;SDS011;10944;42.590;12.630;2023-02-28T03:36:49;14.73;;;9.37;;
21567;SDS011;10944;42.590;12.630;2023-02-28T03:39:20;15.13;;;9.63;;
21567;SDS011;10944;42.590;12.630;2023-02-28T03:41:57;13.77;;;9.17;;
21567;SDS011;10944;42.590;12.630;2023-02-28T03:47:58;15.70;;;8.97;;
21567;SDS011;10944;42.590;12.630;2023-02-28T03:53:03;15.10;;;9.27;;
21567;SDS011;10944;42.590;12.630;2023-02-28T03:55:37;16.13;;;9.10;;
21567;SDS011;10944;42.590;12.630;2023-02-28T03:58:11;13.93;;;9.00;;
21567;SDS011;10944;42.590;12.630;2023-02-28T04:01:01;14.47;;;8.77;;
21567;SDS011;10944;42.590;12.630;2023-02-28T04:03:34;15.00;;;9.07;;
21567;SDS011;10944;42.590;12.630;2023-02-28T04:06:01;14.43;;;8.60;;
21567;SDS011;10944;42.590;12.630;2023-02-28T04:08:27;12.90;;;8.10;;
21567;SDS011;10944;42.590;12.630;2023-02-28T04:10:55;14.10;;;7.87;;
21567;SDS011;10944;42.590;12.630;2023-02-28T04:13:26;13.47;;;8.63;;
21567;SDS011;10944;42.590;12.630;2023-02-28T04:15:52;12.67;;;8.30;;
21567;SDS011;10944;42.590;12.630;2023-02-28T04:18:17;13.97;;;8.50;;
21567;SDS011;10944;42.590;12.630;2023-02-28T04:20:43;13.07;;;8.60;;
21567;SDS011;10944;42.590;12.630;2023-02-28T04:23:09;15.10;;;8.70;;
21567;SDS011;10944;42.590;12.630;2023-02-28T04:25:34;13.20;;;8.77;;
21567;SDS011;10944;42.590;12.630;2023-02-28T04:28:06;14.73;;;8.83;;
21567;SDS011;10944;42.590;12.630;2023-02-28T04:30:32;14.13;;;9.47;;
21567;SDS011;10944;42.590;12.630;2023-02-28T04:32:58;15.27;;;8.93;;
21567;SDS011;10944;42.590;12.630;2023-02-28T04:35:24;15.30;;;9.47;;
21567;SDS011;10944;42.590;12.630;2023-02-28T04:37:50;15.53;;;9.50;;
21567;SDS011;10944;42.590;12.630;2023-02-28T04:40:16;16.00;;;10.07;;
21567;SDS011;10944;42.590;12.630;2023-02-28T04:42:41;15.53;;;9.83;;
21567;SDS011;10944;42.590;12.630;2023-02-28T04:45:07;14.60;;;9.97;;
21567;SDS011;10944;42.590;12.630;2023-02-28T04:47:35;15.03;;;9.67;;
21567;SDS011;10944;42.590;12.630;2023-02-28T04:50:01;16.70;;;9.93;;
21567;SDS011;10944;42.590;12.630;2023-02-28T04:52:28;15.67;;;10.07;;
21567;SDS011;10944;42.590;12.630;2023-02-28T04:54:53;16.73;;;10.33;;
21567;SDS011;10944;42.590;12.630;2023-02-28T04:57:19;18.33;;;10.23;;
21567;SDS011;10944;42.590;12.630;2023-02-28T04:59:45;16.13;;;10.00;;
21567;SDS011;10944;42.590;12.630;2023-02-28T05:02:11;15.40;;;9.73;;
21567;SDS011;10944;42.590;12.630;2023-02-28T05:04:37;18.87;;;10.13;;
21567;SDS011;10944;42.590;12.630;2023-02-28T05:07:03;14.80;;;9.73;;
21567;SDS011;10944;42.590;12.630;2023-02-28T05:09:29;17.53;;;10.33;;
21567;SDS011;10944;42.590;12.630;2023-02-28T05:11:54;15.37;;;9.97;;
21567;SDS011;10944;42.590;12.630;2023-02-28T05:14:20;15.43;;;10.07;;
21567;SDS011;10944;42.590;12.630;2023-02-28T05:16:46;15.63;;;9.93;;
21567;SDS011;10944;42.590;12.630;2023-02-28T05:19:12;15.80;;;9.70;;
21567;SDS011;10944;42.590;12.630;2023-02-28T05:21:38;15.17;;;10.13;;
21567;SDS011;10944;42.590;12.630;2023-02-28T05:24:06;15.63;;;10.00;;
21567;SDS011;10944;42.590;12.630;2023-02-28T05:26:35;16.73;;;9.83;;
21567;SDS011;10944;42.590;12.630;2023-02-28T05:29:02;16.03;;;10.10;;
21567;SDS011;10944;42.590;12.630;2023-02-28T05:31:28;16.63;;;10.43;;
21567;SDS011;10944;42.590;12.630;2023-02-28T05:33:54;15.10;;;9.53;;
21567;SDS011;10944;42.590;12.630;2023-02-28T05:36:20;15.80;;;10.00;;
21567;SDS011;10944;42.590;12.630;2023-02-28T05:38:47;17.07;;;10.43;;
21567;SDS011;10944;42.590;12.630;2023-02-28T05:41:13;14.53;;;9.97;;
21567;SDS011;10944;42.590;12.630;2023-02-28T05:43:39;17.00;;;9.77;;
21567;SDS011;10944;42.590;12.630;2023-02-28T05:46:06;15.57;;;10.23;;
21567;SDS011;10944;42.590;12.630;2023-02-28T05:48:34;14.73;;;10.10;;
21567;SDS011;10944;42.590;12.630;2023-02-28T05:51:02;17.53;;;10.43;;
21567;SDS011;10944;42.590;12.630;2023-02-28T05:53:28;17.40;;;10.10;;
21567;SDS011;10944;42.590;12.630;2023-02-28T05:55:55;13.77;;;9.33;;
21567;SDS011;10944;42.590;12.630;2023-02-28T05:58:20;15.90;;;10.07;;
21567;SDS011;10944;42.590;12.630;2023-02-28T06:00:47;17.20;;;10.10;;
21567;SDS011;10944;42.590;12.630;2023-02-28T06:03:12;14.80;;;9.23;;
21567;SDS011;10944;42.590;12.630;2023-02-28T06:05:38;15.80;;;10.27;;
21567;SDS011;10944;42.590;12.630;2023-02-28T06:08:04;15.90;;;9.37;;
21567;SDS011;10944;42.590;12.630;2023-02-28T06:10:34;15.33;;;9.37;;
21567;SDS011;10944;42.590;12.630;2023-02-28T06:13:00;16.03;;;9.60;;
21567;SDS011;10944;42.590;12.630;2023-02-28T06:15:27;16.93;;;9.77;;
21567;SDS011;10944;42.590;12.630;2023-02-28T06:17:54;17.90;;;9.90;;
21567;SDS011;10944;42.590;12.630;2023-02-28T06:20:21;18.90;;;10.43;;
21567;SDS011;10944;42.590;12.630;2023-02-28T06:22:48;14.87;;;9.30;;
21567;SDS011;10944;42.590;12.630;2023-02-28T06:25:16;15.40;;;9.57;;
21567;SDS011;10944;42.590;12.630;2023-02-28T06:27:42;15.77;;;9.60;;
21567;SDS011;10944;42.590;12.630;2023-02-28T06:30:09;16.10;;;9.80;;
21567;SDS011;10944;42.590;12.630;2023-02-28T06:32:35;14.93;;;10.17;;
21567;SDS011;10944;42.590;12.630;2023-02-28T06:35:02;17.43;;;9.63;;
21567;SDS011;10944;42.590;12.630;2023-02-28T06:37:28;15.70;;;9.80;;
21567;SDS011;10944;42.590;12.630;2023-02-28T06:39:55;17.03;;;10.57;;
21567;SDS011;10944;42.590;12.630;2023-02-28T06:42:21;15.67;;;9.87;;
21567;SDS011;10944;42.590;12.630;2023-02-28T06:44:50;16.93;;;9.83;;
21567;SDS011;10944;42.590;12.630;2023-02-28T06:47:16;16.10;;;9.80;;
21567;SDS011;10944;42.590;12.630;2023-02-28T06:49:42;18.13;;;10.30;;
21567;SDS011;10944;42.590;12.630;2023-02-28T06:52:10;17.33;;;10.20;;
21567;SDS011;10944;42.590;12.630;2023-02-28T06:54:36;14.97;;;9.93;;
21567;SDS011;10944;42.590;12.630;2023-02-28T06:57:02;18.00;;;11.37;;
21567;SDS011;10944;42.590;12.630;2023-02-28T06:59:28;17.27;;;10.20;;
21567;SDS011;10944;42.590;12.630;2023-02-28T07:01:53;17.37;;;9.77;;
21567;SDS011;10944;42.590;12.630;2023-02-28T07:04:20;15.70;;;9.67;;
21567;SDS011;10944;42.590;12.630;2023-02-28T07:06:46;16.93;;;10.20;;
21567;SDS011;10944;42.590;12.630;2023-02-28T07:09:12;16.90;;;9.47;;
21567;SDS011;10944;42.590;12.630;2023-02-28T07:11:39;14.43;;;9.30;;
21567;SDS011;10944;42.590;12.630;2023-02-28T07:14:05;14.47;;;9.23;;
21567;SDS011;10944;42.590;12.630;2023-02-28T07:16:32;14.83;;;9.30;;
21567;SDS011;10944;42.590;12.630;2023-02-28T07:18:58;18.97;;;11.60;;
21567;SDS011;10944;42.590;12.630;2023-02-28T07:21:24;25.20;;;13.67;;
21567;SDS011;10944;42.590;12.630;2023-02-28T07:23:50;18.30;;;11.93;;
21567;SDS011;10944;42.590;12.630;2023-02-28T07:26:17;18.87;;;10.80;;
21567;SDS011;10944;42.590;12.630;2023-02-28T07:28:45;15.10;;;9.67;;
21567;SDS011;10944;42.590;12.630;2023-02-28T07:31:12;18.20;;;10.57;;
21567;SDS011;10944;42.590;12.630;2023-02-28T07:33:42;18.87;;;10.70;;
21567;SDS011;10944;42.590;12.630;2023-02-28T07:36:09;18.83;;;11.00;;
21567;SDS011;10944;42.590;12.630;2023-02-28T07:38:40;16.83;;;11.03;;
21567;SDS011;10944;42.590;12.630;2023-02-28T07:41:11;15.80;;;9.17;;
21567;SDS011;10944;42.590;12.630;2023-02-28T07:43:37;19.40;;;11.73;;
21567;SDS011;10944;42.590;12.630;2023-02-28T07:46:04;13.23;;;8.43;;
21567;SDS011;10944;42.590;12.630;2023-02-28T07:48:31;15.03;;;8.57;;
21567;SDS011;10944;42.590;12.630;2023-02-28T07:50:57;12.57;;;8.43;;
21567;SDS011;10944;42.590;12.630;2023-02-28T07:53:24;14.20;;;8.57;;
21567;SDS011;10944;42.590;12.630;2023-02-28T07:55:50;17.00;;;9.07;;
21567;SDS011;10944;42.590;12.630;2023-02-28T07:58:16;15.23;;;9.10;;
21567;SDS011;10944;42.590;12.630;2023-02-28T08:00:41;15.20;;;8.97;;
21567;SDS011;10944;42.590;12.630;2023-02-28T08:03:10;16.73;;;9.60;;
21567;SDS011;10944;42.590;12.630;2023-02-28T08:05:40;14.30;;;9.00;;
21567;SDS011;10944;42.590;12.630;2023-02-28T08:08:09;15.47;;;10.07;;
21567;SDS011;10944;42.590;12.630;2023-02-28T08:10:36;16.80;;;10.60;;
21567;SDS011;10944;42.590;12.630;2023-02-28T08:13:01;17.93;;;12.00;;
21567;SDS011;10944;42.590;12.630;2023-02-28T08:15:27;18.67;;;11.57;;
21567;SDS011;10944;42.590;12.630;2023-02-28T08:17:53;18.57;;;11.70;;
21567;SDS011;10944;42.590;12.630;2023-02-28T08:20:21;16.87;;;11.20;;
21567;SDS011;10944;42.590;12.630;2023-02-28T08:22:47;15.90;;;10.87;;
21567;SDS011;10944;42.590;12.630;2023-02-28T08:25:13;18.43;;;12.67;;
21567;SDS011;10944;42.590;12.630;2023-02-28T08:27:39;19.70;;;11.97;;
21567;SDS011;10944;42.590;12.630;2023-02-28T08:30:05;20.23;;;11.30;;
21567;SDS011;10944;42.590;12.630;2023-02-28T08:32:32;19.60;;;11.50;;
21567;SDS011;10944;42.590;12.630;2023-02-28T08:34:58;17.57;;;11.30;;
21567;SDS011;10944;42.590;12.630;2023-02-28T08:37:24;17.50;;;11.30;;
21567;SDS011;10944;42.590;12.630;2023-02-28T08:39:50;19.83;;;12.00;;
21567;SDS011;10944;42.590;12.630;2023-02-28T08:42:16;18.17;;;11.17;;
21567;SDS011;10944;42.590;12.630;2023-02-28T08:44:42;17.87;;;11.07;;
21567;SDS011;10944;42.590;12.630;2023-02-28T08:47:07;15.25;;;10.82;;
21567;SDS011;10944;42.590;12.630;2023-02-28T08:49:33;18.00;;;11.30;;
21567;SDS011;10944;42.590;12.630;2023-02-28T08:51:59;20.43;;;12.57;;
21567;SDS011;10944;42.590;12.630;2023-02-28T08:54:24;19.75;;;11.63;;
21567;SDS011;10944;42.590;12.630;2023-02-28T08:56:50;17.83;;;12.00;;
21567;SDS011;10944;42.590;12.630;2023-02-28T08:59:16;18.95;;;11.88;;
21567;SDS011;10944;42.590;12.630;2023-02-28T09:01:41;19.55;;;11.30;;
21567;SDS011;10944;42.590;12.630;2023-02-28T09:04:08;15.85;;;10.10;;
21567;SDS011;10944;42.590;12.630;2023-02-28T09:06:36;17.87;;;10.70;;
21567;SDS011;10944;42.590;12.630;2023-02-28T09:09:02;17.47;;;10.57;;
21567;SDS011;10944;42.590;12.630;2023-02-28T09:11:30;13.52;;;9.10;;
21567;SDS011;10944;42.590;12.630;2023-02-28T09:13:57;14.60;;;8.85;;
21567;SDS011;10944;42.590;12.630;2023-02-28T09:16:24;14.00;;;8.90;;
21567;SDS011;10944;42.590;12.630;2023-02-28T09:18:49;16.67;;;9.90;;
21567;SDS011;10944;42.590;12.630;2023-02-28T09:21:16;14.73;;;9.73;;
21567;SDS011;10944;42.590;12.630;2023-02-28T09:23:43;17.35;;;8.95;;
21567;SDS011;10944;42.590;12.630;2023-02-28T09:26:20;13.73;;;8.98;;
21567;SDS011;10944;42.590;12.630;2023-02-28T09:28:48;14.43;;;8.98;;
21567;SDS011;10944;42.590;12.630;2023-02-28T09:31:16;15.13;;;9.27;;
21567;SDS011;10944;42.590;12.630;2023-02-28T09:33:46;15.23;;;8.55;;
21567;SDS011;10944;42.590;12.630;2023-02-28T09:36:15;19.63;;;9.98;;
21567;SDS011;10944;42.590;12.630;2023-02-28T09:38:41;17.20;;;8.75;;
21567;SDS011;10944;42.590;12.630;2023-02-28T09:41:17;14.13;;;8.73;;
21567;SDS011;10944;42.590;12.630;2023-02-28T09:43:50;16.25;;;8.13;;
21567;SDS011;10944;42.590;12.630;2023-02-28T09:48:45;13.20;;;7.68;;
21567;SDS011;10944;42.590;12.630;2023-02-28T09:53:57;11.07;;;6.78;;
21567;SDS011;10944;42.590;12.630;2023-02-28T09:56:24;10.73;;;6.85;;
21567;SDS011;10944;42.590;12.630;2023-02-28T10:01:49;10.73;;;6.60;;
21567;SDS011;10944;42.590;12.630;2023-02-28T10:04:40;11.40;;;7.60;;
21567;SDS011;10944;42.590;12.630;2023-02-28T10:09:57;11.20;;;7.30;;
21567;SDS011;10944;42.590;12.630;2023-02-28T10:12:26;12.75;;;6.93;;
21567;SDS011;10944;42.590;12.630;2023-02-28T10:14:54;11.60;;;6.38;;
21567;SDS011;10944;42.590;12.630;2023-02-28T10:17:25;11.95;;;6.25;;
21567;SDS011;10944;42.590;12.630;2023-02-28T10:20:00;13.80;;;6.63;;
21567;SDS011;10944;42.590;12.630;2023-02-28T10:22:43;10.27;;;6.93;;
21567;SDS011;10944;42.590;12.630;2023-02-28T10:25:26;11.02;;;6.50;;
21567;SDS011;10944;42.590;12.630;2023-02-28T10:27:54;9.30;;;6.18;;
21567;SDS011;10944;42.590;12.630;2023-02-28T10:30:32;6.07;;;3.22;;
21567;SDS011;10944;42.590;12.630;2023-02-28T10:32:59;2.08;;;0.80;;
21567;SDS011;10944;42.590;12.630;2023-02-28T10:35:25;0.38;;;0.38;;
21567;SDS011;10944;42.590;12.630;2023-02-28T10:37:56;0.73;;;0.50;;
21567;SDS011;10944;42.590;12.630;2023-02-28T10:42:59;0.55;;;0.32;;
21567;SDS011;10944;42.590;12.630;2023-02-28T10:45:30;1.05;;;0.55;;
21567;SDS011;10944;42.590;12.630;2023-02-28T10:48:03;2.85;;;0.40;;
21567;SDS011;10944;42.590;12.630;2023-02-28T10:56:34;0.60;;;0.40;;
21567;SDS011;10944;42.590;12.630;2023-02-28T11:03:44;0.85;;;0.50;;
21567;SDS011;10944;42.590;12.630;2023-02-28T11:06:15;0.77;;;0.50;;
21567;SDS011;10944;42.590;12.630;2023-02-28T11:08:54;0.52;;;0.40;;
21567;SDS011;10944;42.590;12.630;2023-02-28T11:11:22;1.13;;;0.50;;
21567;SDS011;10944;42.590;12.630;2023-02-28T11:14:25;0.70;;;0.50;;
21567;SDS011;10944;42.590;12.630;2023-02-28T11:16:51;1.10;;;0.45;;
21567;SDS011;10944;42.590;12.630;2023-02-28T11:19:23;1.00;;;0.50;;
21567;SDS011;10944;42.590;12.630;2023-02-28T11:21:57;0.77;;;0.40;;
21567;SDS011;10944;42.590;12.630;2023-02-28T11:29:56;0.90;;;0.45;;
21567;SDS011;10944;42.590;12.630;2023-02-28T11:32:23;0.50;;;0.40;;
21567;SDS011;10944;42.590;12.630;2023-02-28T11:37:34;0.80;;;0.50;;
21567;SDS011;10944;42.590;12.630;2023-02-28T11:40:01;1.58;;;0.55;;
21567;SDS011;10944;42.590;12.630;2023-02-28T12:11:56;1.15;;;0.50;;
21567;SDS011;10944;42.590;12.630;2023-02-28T12:25:29;1.15;;;0.73;;
21567;SDS011;10944;42.590;12.630;2023-02-28T12:28:20;1.05;;;0.60;;
21567;SDS011;10944;42.590;12.630;2023-02-28T12:30:56;1.15;;;0.60;;
21567;SDS011;10944;42.590;12.630;2023-02-28T12:33:28;1.10;;;0.50;;
21567;SDS011;10944;42.590;12.630;2023-02-28T12:36:00;1.48;;;0.60;;
21567;SDS011;10944;42.590;12.630;2023-02-28T12:41:37;0.50;;;0.47;;
21567;SDS011;10944;42.590;12.630;2023-02-28T12:44:22;1.15;;;0.50;;
21567;SDS011;10944;42.590;12.630;2023-02-28T12:47:00;0.70;;;0.40;;
21567;SDS011;10944;42.590;12.630;2023-02-28T12:52:07;1.63;;;0.50;;
21567;SDS011;10944;42.590;12.630;2023-02-28T12:59:58;0.93;;;0.60;;
21567;SDS011;10944;42.590;12.630;2023-02-28T13:10:40;1.13;;;0.68;;
21567;SDS011;10944;42.590;12.630;2023-02-28T13:13:19;0.77;;;0.50;;
21567;SDS011;10944;42.590;12.630;2023-02-28T13:16:08;2.35;;;0.70;;
21567;SDS011;10944;42.590;12.630;2023-02-28T13:21:44;0.95;;;0.50;;
21567;SDS011;10944;42.590;12.630;2023-02-28T13:24:08;1.27;;;0.70;;
21567;SDS011;10944;42.590;12.630;2023-02-28T13:34:30;2.55;;;0.55;;
21567;SDS011;10944;42.590;12.630;2023-02-28T13:47:41;1.48;;;0.63;;
21567;SDS011;10944;42.590;12.630;2023-02-28T13:55:24;2.33;;;1.17;;
21567;SDS011;10944;42.590;12.630;2023-02-28T14:08:55;2.17;;;1.00;;
21567;SDS011;10944;42.590;12.630;2023-02-28T14:11:26;2.47;;;0.95;;
21567;SDS011;10944;42.590;12.630;2023-02-28T14:14:00;2.15;;;0.80;;
21567;SDS011;10944;42.590;12.630;2023-02-28T14:16:27;1.35;;;0.82;;
21567;SDS011;10944;42.590;12.630;2023-02-28T14:19:12;1.23;;;0.88;;
21567;SDS011;10944;42.590;12.630;2023-02-28T14:24:29;1.52;;;0.82;;
21567;SDS011;10944;42.590;12.630;2023-02-28T14:30:01;2.75;;;1.27;;
21567;SDS011;10944;42.590;12.630;2023-02-28T14:32:37;1.70;;;0.98;;
21567;SDS011;10944;42.590;12.630;2023-02-28T14:37:56;1.70;;;0.90;;
21567;SDS011;10944;42.590;12.630;2023-02-28T14:42:58;1.70;;;1.13;;
21567;SDS011;10944;42.590;12.630;2023-02-28T14:45:26;1.40;;;0.80;;
21567;SDS011;10944;42.590;12.630;2023-02-28T14:47:57;1.30;;;0.88;;
21567;SDS011;10944;42.590;12.630;2023-02-28T14:50:27;3.10;;;0.80;;
21567;SDS011;10944;42.590;12.630;2023-02-28T14:52:59;1.23;;;0.90;;
21567;SDS011;10944;42.590;12.630;2023-02-28T14:55:26;2.08;;;0.90;;
21567;SDS011;10944;42.590;12.630;2023-02-28T14:57:56;1.55;;;1.00;;
21567;SDS011;10944;42.590;12.630;2023-02-28T15:00:32;1.70;;;1.00;;
21567;SDS011;10944;42.590;12.630;2023-02-28T15:02:59;2.22;;;1.17;;
21567;SDS011;10944;42.590;12.630;2023-02-28T15:05:33;1.73;;;0.90;;
21567;SDS011;10944;42.590;12.630;2023-02-28T15:08:04;2.15;;;1.00;;
21567;SDS011;10944;42.590;12.630;2023-02-28T15:10:30;1.85;;;1.00;;
21567;SDS011;10944;42.590;12.630;2023-02-28T15:13:00;3.53;;;1.00;;
21567;SDS011;10944;42.590;12.630;2023-02-28T15:20:58;2.70;;;1.40;;
21567;SDS011;10944;42.590;12.630;2023-02-28T15:23:31;6.20;;;2.30;;
21567;SDS011;10944;42.590;12.630;2023-02-28T15:25:58;4.63;;;2.00;;
21567;SDS011;10944;42.590;12.630;2023-02-28T15:28:24;4.45;;;2.45;;
21567;SDS011;10944;42.590;12.630;2023-02-28T15:30:54;2.67;;;1.42;;
21567;SDS011;10944;42.590;12.630;2023-02-28T15:33:27;3.50;;;1.60;;
21567;SDS011;10944;42.590;12.630;2023-02-28T15:38:52;1.92;;;1.00;;
21567;SDS011;10944;42.590;12.630;2023-02-28T15:41:35;1.55;;;1.02;;
21567;SDS011;10944;42.590;12.630;2023-02-28T15:44:15;1.67;;;0.98;;
21567;SDS011;10944;42.590;12.630;2023-02-28T15:46:43;2.60;;;1.20;;
21567;SDS011;10944;42.590;12.630;2023-02-28T15:49:20;3.15;;;1.17;;
21567;SDS011;10944;42.590;12.630;2023-02-28T15:51:47;3.45;;;0.98;;
21567;SDS011;10944;42.590;12.630;2023-02-28T15:54:24;40.72;;;21.30;;
21567;SDS011;10944;42.590;12.630;2023-02-28T15:56:57;3.13;;;1.90;;
21567;SDS011;10944;42.590;12.630;2023-02-28T15:59:31;2.45;;;1.45;;
21567;SDS011;10944;42.590;12.630;2023-02-28T16:04:35;2.65;;;1.20;;
21567;SDS011;10944;42.590;12.630;2023-02-28T16:07:05;3.10;;;1.85;;
21567;SDS011;10944;42.590;12.630;2023-02-28T16:09:37;2.67;;;1.48;;
21567;SDS011;10944;42.590;12.630;2023-02-28T16:12:03;3.28;;;1.70;;
21567;SDS011;10944;42.590;12.630;2023-02-28T16:14:30;2.70;;;1.40;;
21567;SDS011;10944;42.590;12.630;2023-02-28T16:16:57;2.90;;;1.60;;
21567;SDS011;10944;42.590;12.630;2023-02-28T16:19:33;3.35;;;1.85;;
21567;SDS011;10944;42.590;12.630;2023-02-28T16:21:59;3.65;;;2.03;;
21567;SDS011;10944;42.590;12.630;2023-02-28T16:24:26;4.53;;;1.88;;
21567;SDS011;10944;42.590;12.630;2023-02-28T16:26:52;3.90;;;2.20;;
21567;SDS011;10944;42.590;12.630;2023-02-28T16:29:24;2.10;;;1.30;;
21567;SDS011;10944;42.590;12.630;2023-02-28T16:31:54;2.42;;;1.33;;
21567;SDS011;10944;42.590;12.630;2023-02-28T16:34:21;2.35;;;1.05;;
21567;SDS011;10944;42.590;12.630;2023-02-28T16:36:47;3.53;;;1.10;;
21567;SDS011;10944;42.590;12.630;2023-02-28T16:39:13;4.55;;;1.15;;
21567;SDS011;10944;42.590;12.630;2023-02-28T16:41:41;1.73;;;1.05;;
21567;SDS011;10944;42.590;12.630;2023-02-28T16:44:13;2.78;;;1.00;;
21567;SDS011;10944;42.590;12.630;2023-02-28T16:46:56;2.20;;;1.17;;
21567;SDS011;10944;42.590;12.630;2023-02-28T16:49:22;2.90;;;1.30;;
21567;SDS011;10944;42.590;12.630;2023-02-28T16:51:47;2.50;;;1.20;;
21567;SDS011;10944;42.590;12.630;2023-02-28T16:54:13;1.85;;;1.10;;
21567;SDS011;10944;42.590;12.630;2023-02-28T16:56:40;2.10;;;1.17;;
21567;SDS011;10944;42.590;12.630;2023-02-28T16:59:08;2.83;;;1.73;;
21567;SDS011;10944;42.590;12.630;2023-02-28T17:01:36;1.85;;;1.27;;
21567;SDS011;10944;42.590;12.630;2023-02-28T17:04:02;2.03;;;1.20;;
21567;SDS011;10944;42.590;12.630;2023-02-28T17:06:28;3.85;;;2.10;;
21567;SDS011;10944;42.590;12.630;2023-02-28T17:08:55;3.88;;;1.60;;
21567;SDS011;10944;42.590;12.630;2023-02-28T17:11:22;1.90;;;1.20;;
21567;SDS011;10944;42.590;12.630;2023-02-28T17:13:49;3.60;;;1.20;;
21567;SDS011;10944;42.590;12.630;2023-02-28T17:16:31;4.03;;;1.25;;
21567;SDS011;10944;42.590;12.630;2023-02-28T17:19:00;2.47;;;1.40;;
21567;SDS011;10944;42.590;12.630;2023-02-28T17:21:28;3.33;;;1.40;;
21567;SDS011;10944;42.590;12.630;2023-02-28T17:23:54;1.95;;;1.20;;
21567;SDS011;10944;42.590;12.630;2023-02-28T17:26:21;2.15;;;1.08;;
21567;SDS011;10944;42.590;12.630;2023-02-28T17:28:50;1.98;;;1.10;;
21567;SDS011;10944;42.590;12.630;2023-02-28T17:31:17;2.53;;;1.65;;
21567;SDS011;10944;42.590;12.630;2023-02-28T17:33:43;2.60;;;1.30;;
21567;SDS011;10944;42.590;12.630;2023-02-28T17:36:20;1.88;;;1.13;;
21567;SDS011;10944;42.590;12.630;2023-02-28T17:38:49;2.90;;;1.02;;
21567;SDS011;10944;42.590;12.630;2023-02-28T17:41:15;1.88;;;1.00;;
21567;SDS011;10944;42.590;12.630;2023-02-28T17:43:41;2.05;;;0.93;;
21567;SDS011;10944;42.590;12.630;2023-02-28T17:46:24;2.75;;;1.00;;